Time;durP1;ratioP1;P1;durP2;ratioP2;P2;SDS_P1;SDS_P2;PMS_P1;PMS_P2;Temp;Humidity;BMP_temperature;BMP_pressure;BME280_temperature;BME280_humidity;BME280_pressure;Samples;Min_cycle;Max_cycle;Signal;HPM_P1;HPM_P2
2023/07/23 00:00:31;;;;;;;10.05;5.80;;;18.10;50.60;;;;;;5034067;28;20383;-72
2023/07/23 00:02:57;;;;;;;9.80;5.67;;;18.00;51.60;;;;;;5033550;28;20824;-72
2023/07/23 00:05:23;;;;;;;12.30;5.87;;;18.10;51.90;;;;;;5033865;28;20387;-72
2023/07/23 00:07:50;;;;;;;14.30;5.77;;;18.00;52.90;;;;;;5031747;28;20387;-71
2023/07/23 00:10:16;;;;;;;11.70;5.30;;;18.00;50.60;;;;;;5015530;28;20449;-71
2023/07/23 00:12:41;;;;;;;12.53;5.90;;;18.00;48.90;;;;;;5032754;28;20395;-72
2023/07/23 00:15:07;;;;;;;8.60;5.60;;;17.90;47.70;;;;;;5033179;28;20414;-71
2023/07/23 00:17:33;;;;;;;7.80;4.90;;;17.90;47.20;;;;;;5032580;28;20490;-71
2023/07/23 00:19:58;;;;;;;7.45;5.20;;;17.90;44.90;;;;;;5031611;28;20558;-73
2023/07/23 00:22:25;;;;;;;8.80;5.77;;;17.80;44.50;;;;;;5031012;28;20398;-72
2023/07/23 00:24:56;;;;;;;13.40;6.00;;;17.80;43.90;;;;;;5032979;28;20384;-73
2023/07/23 00:27:22;;;;;;;12.17;5.90;;;17.80;43.60;;;;;;5032552;28;20386;-70
2023/07/23 00:29:48;;;;;;;7.90;5.30;;;17.80;43.80;;;;;;5032305;28;20391;-72
2023/07/23 00:32:13;;;;;;;8.37;5.70;;;17.80;42.30;;;;;;5032715;28;20489;-72
2023/07/23 00:34:39;;;;;;;10.63;5.60;;;17.80;42.80;;;;;;5032486;28;20375;-71
2023/07/23 00:37:04;;;;;;;8.80;5.40;;;17.90;41.90;;;;;;5032724;28;20391;-73
2023/07/23 00:39:30;;;;;;;8.43;5.40;;;17.90;41.60;;;;;;5032551;28;20475;-72
2023/07/23 00:41:56;;;;;;;9.83;6.03;;;17.90;41.80;;;;;;5032418;28;20533;-72
2023/07/23 00:44:22;;;;;;;14.18;6.80;;;17.90;42.80;;;;;;5032492;28;20461;-73
2023/07/23 00:46:48;;;;;;;11.33;6.03;;;17.90;41.90;;;;;;5032857;28;20469;-72
2023/07/23 00:49:13;;;;;;;13.40;7.00;;;17.90;41.70;;;;;;5032247;28;20390;-73
2023/07/23 00:51:40;;;;;;;20.90;7.60;;;17.90;42.10;;;;;;5032434;28;20386;-71
2023/07/23 00:54:07;;;;;;;9.73;6.75;;;17.90;41.40;;;;;;5032880;28;20752;-72
2023/07/23 00:56:35;;;;;;;11.47;6.40;;;17.90;40.80;;;;;;5033699;28;20387;-72
2023/07/23 00:59:00;;;;;;;12.40;6.20;;;17.90;40.70;;;;;;5045605;28;20395;-73
2023/07/23 01:01:26;;;;;;;9.67;6.63;;;18.00;39.90;;;;;;5048534;28;20391;-72
2023/07/23 01:03:51;;;;;;;9.03;6.00;;;17.90;40.10;;;;;;5042986;28;20824;-71
2023/07/23 01:06:19;;;;;;;11.70;6.55;;;18.00;40.20;;;;;;5032028;28;20698;-71
2023/07/23 01:08:45;;;;;;;15.02;6.80;;;17.90;39.80;;;;;;5031974;28;20390;-72
2023/07/23 01:11:11;;;;;;;8.93;6.35;;;17.90;40.20;;;;;;5031720;28;21005;-71
2023/07/23 01:13:39;;;;;;;12.00;6.40;;;17.90;39.60;;;;;;5031793;28;20387;-72
2023/07/23 01:16:07;;;;;;;12.68;6.00;;;18.10;39.30;;;;;;5031895;28;20387;-72
2023/07/23 01:18:40;;;;;;;11.82;6.43;;;18.00;39.20;;;;;;5031744;28;20422;-72
2023/07/23 01:21:06;;;;;;;12.07;6.20;;;17.90;40.00;;;;;;5031423;28;20470;-72
2023/07/23 01:23:32;;;;;;;11.25;6.10;;;17.80;40.40;;;;;;5031776;28;20904;-71
2023/07/23 01:25:58;;;;;;;9.80;6.20;;;17.90;39.60;;;;;;5032070;28;20449;-72
2023/07/23 01:28:24;;;;;;;11.68;6.43;;;17.80;39.80;;;;;;5031860;28;20395;-71
2023/07/23 01:30:52;;;;;;;14.05;6.28;;;17.80;39.50;;;;;;5031736;28;20406;-72
2023/07/23 01:33:18;;;;;;;11.07;6.40;;;17.80;39.70;;;;;;5031545;28;20394;-72
2023/07/23 01:35:47;;;;;;;14.15;6.80;;;17.80;40.50;;;;;;5031692;28;20486;-71
2023/07/23 01:38:13;;;;;;;9.82;6.68;;;17.80;40.10;;;;;;5030177;28;20482;-71
2023/07/23 01:40:40;;;;;;;11.68;6.32;;;17.70;39.70;;;;;;5031641;28;20390;-72
2023/07/23 01:43:06;;;;;;;10.20;6.65;;;17.80;38.90;;;;;;5031147;28;20451;-69
2023/07/23 01:45:32;;;;;;;15.90;6.68;;;17.90;38.60;;;;;;5030090;28;20431;-71
2023/07/23 01:47:57;;;;;;;15.77;7.05;;;17.90;38.80;;;;;;5031301;28;20383;-71
2023/07/23 01:50:23;;;;;;;10.53;6.70;;;17.90;38.30;;;;;;5032261;28;20461;-72
2023/07/23 01:52:49;;;;;;;10.90;6.97;;;17.80;38.80;;;;;;5031673;28;20466;-72
2023/07/23 01:55:14;;;;;;;11.60;6.70;;;17.80;38.50;;;;;;5031500;28;20394;-71
2023/07/23 01:57:40;;;;;;;11.83;6.90;;;17.80;38.50;;;;;;5031301;28;20433;-72
2023/07/23 02:00:07;;;;;;;11.07;6.10;;;17.80;38.10;;;;;;5032101;28;20387;-72
2023/07/23 02:02:33;;;;;;;15.05;6.70;;;17.80;38.00;;;;;;5032517;28;20410;-71
2023/07/23 02:04:59;;;;;;;11.98;7.00;;;17.80;38.40;;;;;;5032701;28;20380;-71
2023/07/23 02:07:24;;;;;;;11.30;6.90;;;17.70;38.30;;;;;;5032319;28;20387;-72
2023/07/23 02:09:50;;;;;;;11.30;6.90;;;17.80;38.10;;;;;;5032594;28;20399;-72
2023/07/23 02:12:17;;;;;;;9.90;7.00;;;17.70;38.30;;;;;;5031860;28;20773;-72
2023/07/23 02:14:42;;;;;;;12.90;7.28;;;17.70;38.10;;;;;;5031887;28;20910;-70
2023/07/23 02:17:08;;;;;;;13.00;7.47;;;17.70;37.90;;;;;;5031454;28;20399;-71
2023/07/23 02:19:33;;;;;;;11.67;6.93;;;17.70;37.70;;;;;;5031435;28;20530;-72
2023/07/23 02:21:59;;;;;;;13.45;7.28;;;17.80;37.30;;;;;;5031299;28;20407;-69
2023/07/23 02:24:24;;;;;;;11.70;6.80;;;17.80;36.90;;;;;;5031543;28;20383;-72
2023/07/23 02:26:50;;;;;;;14.20;7.57;;;17.70;37.00;;;;;;5031226;28;20367;-71
2023/07/23 02:29:15;;;;;;;10.93;7.40;;;17.90;36.40;;;;;;5031252;28;20796;-70
2023/07/23 02:31:41;;;;;;;14.90;7.38;;;17.90;35.90;;;;;;5031429;28;20740;-72
2023/07/23 02:34:07;;;;;;;13.70;7.33;;;17.90;35.50;;;;;;5030665;28;20387;-72
2023/07/23 02:36:34;;;;;;;13.93;8.10;;;17.90;35.30;;;;;;5031618;28;20418;-73
2023/07/23 02:39:00;;;;;;;14.13;7.60;;;17.90;35.20;;;;;;5031042;28;20470;-70
2023/07/23 02:41:25;;;;;;;11.83;7.40;;;17.90;34.90;;;;;;5031103;28;20537;-72
2023/07/23 02:43:51;;;;;;;13.97;7.50;;;17.80;35.20;;;;;;5029421;28;20826;-73
2023/07/23 02:46:16;;;;;;;23.25;8.00;;;17.80;35.10;;;;;;5030975;28;20812;-71
2023/07/23 02:48:42;;;;;;;16.00;7.60;;;17.80;34.70;;;;;;5030808;28;20860;-71
2023/07/23 02:51:07;;;;;;;12.20;7.50;;;17.90;34.40;;;;;;5030811;28;20391;-71
2023/07/23 02:53:33;;;;;;;12.10;7.25;;;17.90;34.30;;;;;;5033466;28;20379;-72
2023/07/23 02:55:58;;;;;;;11.40;7.53;;;17.90;33.80;;;;;;5036026;28;20394;-72
2023/07/23 02:58:24;;;;;;;16.00;7.73;;;17.90;33.50;;;;;;5035795;28;20428;-72
2023/07/23 03:00:49;;;;;;;13.95;7.50;;;18.00;33.50;;;;;;5037989;28;20394;-72
2023/07/23 03:03:15;;;;;;;12.43;7.37;;;18.00;33.10;;;;;;5040457;28;20415;-72
2023/07/23 03:05:45;;;;;;;12.73;7.60;;;17.90;33.40;;;;;;5038376;28;20503;-73
2023/07/23 03:08:10;;;;;;;11.90;7.35;;;17.90;33.30;;;;;;5038728;28;20414;-71
2023/07/23 03:10:36;;;;;;;11.20;7.70;;;17.90;33.00;;;;;;5037902;28;20383;-72
2023/07/23 03:13:02;;;;;;;13.63;7.23;;;18.00;32.50;;;;;;5039281;28;20383;-71
2023/07/23 03:15:27;;;;;;;14.67;7.90;;;18.00;32.90;;;;;;5040934;28;20448;-72
2023/07/23 03:17:53;;;;;;;12.00;7.03;;;17.90;32.90;;;;;;5036269;28;20488;-71
2023/07/23 03:20:19;;;;;;;10.27;7.30;;;17.90;32.60;;;;;;5034358;28;20842;-70
2023/07/23 03:22:44;;;;;;;12.53;7.23;;;17.90;32.90;;;;;;5033709;28;20409;-71
2023/07/23 03:25:10;;;;;;;12.50;7.77;;;18.00;32.70;;;;;;5034017;28;20414;-71
2023/07/23 03:27:35;;;;;;;12.63;7.28;;;17.90;32.70;;;;;;5033918;28;20851;-71
2023/07/23 03:30:02;;;;;;;13.93;7.35;;;17.90;32.90;;;;;;5034297;28;20383;-70
2023/07/23 03:32:28;;;;;;;13.15;6.82;;;17.80;33.10;;;;;;5033520;28;20410;-71
2023/07/23 03:34:54;;;;;;;13.97;7.00;;;17.80;33.10;;;;;;5033992;28;20414;-72
2023/07/23 03:37:19;;;;;;;13.87;7.17;;;17.80;32.90;;;;;;5033785;28;20441;-71
2023/07/23 03:39:45;;;;;;;11.10;7.55;;;17.80;32.80;;;;;;5033796;28;20907;-72
2023/07/23 03:42:10;;;;;;;11.00;7.10;;;17.80;33.20;;;;;;5033275;28;20403;-71
2023/07/23 03:44:36;;;;;;;9.63;6.70;;;17.90;32.60;;;;;;5033864;28;20445;-71
2023/07/23 03:47:16;;;;;;;10.70;6.43;;;17.90;31.50;;;;;;5034126;28;20382;-71
2023/07/23 03:49:42;;;;;;;10.30;7.03;;;18.10;30.60;;;;;;5033184;28;20383;-72
2023/07/23 03:52:08;;;;;;;8.80;6.10;;;18.20;29.40;;;;;;5033403;28;20815;-72
2023/07/23 03:54:34;;;;;;;10.38;6.38;;;18.30;28.60;;;;;;5034270;28;20387;-72
2023/07/23 03:57:01;;;;;;;10.38;6.30;;;18.40;27.80;;;;;;5034195;28;20391;-71
2023/07/23 03:59:40;;;;;;;9.98;6.50;;;18.50;27.40;;;;;;5034560;28;20387;-73
2023/07/23 04:02:07;;;;;;;10.37;6.33;;;18.60;26.90;;;;;;5036905;28;20399;-71
2023/07/23 04:04:33;;;;;;;9.90;5.47;;;18.60;26.40;;;;;;5039955;28;20437;-72
2023/07/23 04:06:59;;;;;;;14.10;6.37;;;18.70;26.10;;;;;;5042723;28;20623;-71
2023/07/23 04:09:24;;;;;;;9.20;6.03;;;18.70;26.30;;;;;;5039681;28;20375;-72
2023/07/23 04:11:50;;;;;;;11.52;6.05;;;18.80;25.50;;;;;;5036332;28;20759;-72
2023/07/23 04:14:16;;;;;;;8.23;5.88;;;18.80;25.40;;;;;;5036586;28;20908;-72
2023/07/23 04:16:41;;;;;;;13.83;5.60;;;18.90;24.90;;;;;;5053920;28;20398;-71
2023/07/23 04:19:07;;;;;;;11.10;5.70;;;19.00;24.60;;;;;;5056005;28;20401;-72
2023/07/23 04:21:32;;;;;;;13.30;6.22;;;19.00;24.60;;;;;;5049157;28;20391;-72
2023/07/23 04:24:00;;;;;;;8.30;5.57;;;19.00;24.60;;;;;;5032371;28;20411;-72
2023/07/23 04:26:27;;;;;;;8.88;6.03;;;19.00;24.30;;;;;;5033186;28;20474;-72
2023/07/23 04:28:53;;;;;;;6.68;5.30;;;19.10;24.80;;;;;;5032592;28;20381;-72
2023/07/23 04:31:18;;;;;;;9.52;5.55;;;19.10;24.10;;;;;;5032693;28;20876;-70
2023/07/23 04:33:44;;;;;;;9.85;5.70;;;19.20;23.70;;;;;;5032645;28;20396;-71
2023/07/23 04:36:12;;;;;;;10.82;5.80;;;19.10;23.90;;;;;;5032326;28;20394;-72
2023/07/23 04:38:38;;;;;;;7.57;5.50;;;19.20;24.00;;;;;;5032386;28;20387;-70
2023/07/23 04:41:04;;;;;;;11.80;5.75;;;19.20;23.80;;;;;;5032091;28;20394;-72
2023/07/23 04:43:30;;;;;;;8.57;5.70;;;19.20;23.60;;;;;;5032097;28;20443;-72
2023/07/23 04:45:55;;;;;;;9.13;5.40;;;19.30;23.30;;;;;;5032161;28;20419;-72
2023/07/23 04:48:21;;;;;;;10.60;5.30;;;19.30;23.70;;;;;;5031961;28;20387;-72
2023/07/23 04:50:58;;;;;;;14.10;5.82;;;19.30;23.80;;;;;;5032097;28;20486;-72
2023/07/23 04:53:24;;;;;;;7.53;5.70;;;19.40;23.50;;;;;;5032126;28;20867;-70
2023/07/23 04:55:54;;;;;;;6.10;4.90;;;19.30;23.60;;;;;;5031877;28;20383;-71
2023/07/23 04:58:20;;;;;;;12.95;5.45;;;19.30;23.60;;;;;;5031814;28;20474;-72
2023/07/23 05:00:47;;;;;;;10.45;5.32;;;19.30;23.40;;;;;;5032012;28;20410;-71
2023/07/23 05:03:12;;;;;;;9.43;5.20;;;19.50;23.00;;;;;;5031748;28;20733;-72
2023/07/23 05:05:41;;;;;;;8.32;5.10;;;19.50;22.90;;;;;;5031796;28;20371;-71
2023/07/23 05:08:08;;;;;;;10.90;5.47;;;19.60;22.60;;;;;;5030105;28;20387;-70
2023/07/23 05:10:34;;;;;;;11.13;5.47;;;19.70;22.50;;;;;;5031502;28;20507;-72
2023/07/23 05:12:59;;;;;;;8.27;4.82;;;19.90;21.40;;;;;;5031377;28;20475;-71
2023/07/23 05:15:25;;;;;;;6.90;4.43;;;20.10;20.60;;;;;;5031280;28;20452;-71
2023/07/23 05:17:50;;;;;;;7.43;4.20;;;20.20;20.00;;;;;;5031435;28;20422;-72
2023/07/23 05:20:16;;;;;;;5.57;4.20;;;20.30;19.80;;;;;;5031389;28;20474;-72
2023/07/23 05:22:42;;;;;;;9.30;4.00;;;20.30;20.00;;;;;;5031203;28;20454;-71
2023/07/23 05:25:08;;;;;;;7.68;4.20;;;20.40;19.70;;;;;;5031291;28;20394;-71
2023/07/23 05:27:34;;;;;;;7.88;4.15;;;20.50;19.70;;;;;;5031328;28;20386;-71
2023/07/23 05:29:59;;;;;;;7.30;3.80;;;20.60;19.30;;;;;;5031423;28;20421;-71
2023/07/23 05:32:25;;;;;;;7.97;4.13;;;20.70;19.40;;;;;;5034715;28;20458;-70
2023/07/23 05:34:51;;;;;;;6.40;3.40;;;20.70;19.10;;;;;;5012509;28;20385;-71
2023/07/23 05:37:16;;;;;;;6.80;3.60;;;20.80;18.70;;;;;;5015172;28;20387;-71
2023/07/23 05:39:42;;;;;;;4.78;3.28;;;20.80;18.60;;;;;;5031017;28;20555;-72
2023/07/23 05:42:07;;;;;;;5.47;3.10;;;20.90;18.70;;;;;;5032371;28;20776;-70
2023/07/23 05:44:34;;;;;;;5.13;3.50;;;21.00;18.40;;;;;;5037958;28;20473;-72
2023/07/23 05:46:59;;;;;;;6.10;3.30;;;21.10;18.10;;;;;;5029825;28;20400;-72
2023/07/23 05:49:25;;;;;;;4.90;3.00;;;21.10;18.10;;;;;;5011287;28;20391;-72
2023/07/23 05:51:51;;;;;;;5.60;3.42;;;21.20;18.00;;;;;;5020367;28;20387;-73
2023/07/23 05:54:18;;;;;;;5.13;3.10;;;21.20;18.00;;;;;;5034406;28;20387;-78
2023/07/23 05:56:43;;;;;;;5.40;3.22;;;21.10;18.30;;;;;;5037175;28;20561;-73
2023/07/23 05:59:09;;;;;;;9.47;3.40;;;20.90;18.40;;;;;;5011564;28;20417;-72
2023/07/23 06:01:35;;;;;;;5.22;3.60;;;21.00;18.50;;;;;;5023273;28;20402;-72
2023/07/23 06:04:01;;;;;;;7.32;3.20;;;21.00;18.10;;;;;;5031027;28;20506;-72
2023/07/23 06:06:27;;;;;;;9.77;3.50;;;21.10;18.30;;;;;;5030857;28;20419;-72
2023/07/23 06:08:53;;;;;;;10.07;3.30;;;21.20;18.20;;;;;;5030753;28;20541;-71
2023/07/23 06:11:18;;;;;;;15.02;3.30;;;21.20;18.20;;;;;;5030793;28;20410;-73
2023/07/23 06:13:44;;;;;;;4.20;3.10;;;21.30;17.80;;;;;;5031881;28;20391;-74
2023/07/23 06:16:09;;;;;;;6.70;3.30;;;21.20;17.80;;;;;;5031638;28;20460;-73
2023/07/23 06:18:35;;;;;;;5.23;3.10;;;21.20;18.00;;;;;;5044793;28;20883;-72
2023/07/23 06:21:02;;;;;;;10.00;3.40;;;21.30;17.70;;;;;;5042383;28;20393;-73
2023/07/23 06:23:28;;;;;;;5.43;3.33;;;21.30;17.80;;;;;;5035298;28;20482;-74
2023/07/23 06:25:57;;;;;;;4.45;3.08;;;21.20;17.90;;;;;;5031346;28;20907;-74
2023/07/23 06:28:23;;;;;;;9.73;3.53;;;21.20;18.50;;;;;;5031178;28;20464;-77
2023/07/23 06:30:52;;;;;;;8.02;4.32;;;21.20;18.30;;;;;;5031319;28;20391;-76
2023/07/23 06:33:18;;;;;;;7.80;3.50;;;21.20;17.80;;;;;;5029779;28;20441;-72
2023/07/23 06:35:44;;;;;;;8.30;3.70;;;21.10;18.00;;;;;;5031219;28;20427;-75
2023/07/23 06:38:10;;;;;;;7.05;4.20;;;21.20;17.60;;;;;;5029030;28;20395;-72
2023/07/23 06:40:35;;;;;;;6.68;3.67;;;21.20;17.70;;;;;;5035346;28;20401;-74
2023/07/23 06:43:01;;;;;;;7.23;3.70;;;21.10;18.00;;;;;;5043604;28;20426;-71
2023/07/23 06:45:27;;;;;;;6.33;3.97;;;21.20;17.90;;;;;;5028114;28;20441;-71
2023/07/23 06:47:52;;;;;;;6.60;3.90;;;21.20;17.70;;;;;;5039665;28;20389;-71
2023/07/23 06:50:18;;;;;;;6.65;3.63;;;21.30;17.60;;;;;;5034617;28;21135;-71
2023/07/23 06:52:44;;;;;;;9.13;4.40;;;21.40;17.70;;;;;;5024805;28;20932;-73
2023/07/23 06:55:10;;;;;;;5.33;3.60;;;21.50;17.80;;;;;;5014225;28;20393;-73
2023/07/23 06:57:36;;;;;;;8.77;3.90;;;21.60;17.20;;;;;;5028109;28;20396;-72
2023/07/23 07:00:03;;;;;;;9.93;3.97;;;21.70;17.60;;;;;;5029337;28;20401;-73
2023/07/23 07:02:28;;;;;;;8.60;3.83;;;21.80;16.60;;;;;;5046117;28;20473;-71
2023/07/23 07:04:54;;;;;;;14.90;4.27;;;21.70;16.60;;;;;;5049610;28;20404;-73
2023/07/23 07:07:19;;;;;;;5.30;3.72;;;21.70;16.90;;;;;;5050992;28;20468;-73
2023/07/23 07:09:46;;;;;;;6.07;4.05;;;21.70;17.00;;;;;;5043940;28;20888;-73
2023/07/23 07:12:11;;;;;;;5.43;3.70;;;21.70;17.20;;;;;;5049940;28;20466;-73
2023/07/23 07:14:37;;;;;;;7.13;4.00;;;21.70;17.30;;;;;;5053396;28;20410;-74
2023/07/23 07:17:03;;;;;;;6.23;3.77;;;21.80;17.60;;;;;;5036325;28;20409;-75
2023/07/23 07:19:28;;;;;;;9.68;3.75;;;21.80;18.40;;;;;;5032126;28;20436;-71
2023/07/23 07:21:54;;;;;;;6.10;3.87;;;21.80;18.10;;;;;;5035926;28;20435;-71
2023/07/23 07:24:19;;;;;;;7.13;3.60;;;21.70;18.60;;;;;;5035298;28;20401;-71
2023/07/23 07:26:45;;;;;;;7.75;3.75;;;21.70;18.70;;;;;;5041821;28;20428;-72
2023/07/23 07:29:10;;;;;;;7.57;3.90;;;21.40;19.60;;;;;;5037167;28;20772;-71
2023/07/23 07:31:36;;;;;;;7.35;3.78;;;21.30;19.30;;;;;;5030048;28;20462;-72
2023/07/23 07:34:02;;;;;;;8.13;4.23;;;21.20;19.70;;;;;;5031062;28;20391;-72
2023/07/23 07:36:28;;;;;;;6.25;3.97;;;21.30;19.30;;;;;;5044764;28;20493;-71
2023/07/23 07:38:54;;;;;;;8.38;3.75;;;21.30;19.30;;;;;;5043559;28;20427;-71
2023/07/23 07:41:19;;;;;;;9.43;4.10;;;21.40;19.10;;;;;;5033323;28;20391;-71
2023/07/23 07:43:45;;;;;;;6.82;4.00;;;21.30;19.40;;;;;;5034202;28;20410;-72
2023/07/23 07:46:10;;;;;;;6.83;4.03;;;21.20;19.80;;;;;;5033574;28;20436;-71
2023/07/23 07:48:37;;;;;;;5.80;3.80;;;21.20;20.70;;;;;;5033541;28;20465;-73
2023/07/23 07:51:05;;;;;;;7.28;3.42;;;21.10;19.70;;;;;;5033649;28;20387;-72
2023/07/23 07:53:32;;;;;;;6.10;3.80;;;21.20;19.80;;;;;;5031476;28;20875;-72
2023/07/23 07:55:58;;;;;;;6.32;3.88;;;21.30;20.00;;;;;;5032305;28;20830;-71
2023/07/23 07:58:25;;;;;;;9.05;3.70;;;21.20;19.90;;;;;;5032436;28;20453;-71
2023/07/23 08:00:53;;;;;;;6.60;3.60;;;21.10;19.70;;;;;;5032869;28;20391;-72
2023/07/23 08:03:19;;;;;;;8.05;3.70;;;21.00;19.80;;;;;;5033017;28;20772;-73
2023/07/23 08:05:45;;;;;;;8.35;3.70;;;21.00;19.90;;;;;;5033042;28;20383;-71
2023/07/23 08:08:13;;;;;;;8.20;3.55;;;20.90;20.20;;;;;;5033005;28;20819;-72
2023/07/23 08:10:40;;;;;;;5.40;3.40;;;20.80;21.20;;;;;;5033072;28;20437;-71
2023/07/23 08:13:05;;;;;;;6.30;3.40;;;20.70;22.10;;;;;;5032859;28;20391;-71
2023/07/23 08:15:31;;;;;;;14.80;4.10;;;20.60;22.90;;;;;;5033621;28;20467;-72
2023/07/23 08:18:01;;;;;;;6.30;2.90;;;20.60;23.40;;;;;;5033248;28;20407;-71
2023/07/23 08:20:27;;;;;;;9.93;3.40;;;20.50;24.40;;;;;;5033040;28;20383;-72
2023/07/23 08:22:55;;;;;;;10.97;3.77;;;20.40;25.40;;;;;;5032966;28;20403;-72
2023/07/23 08:25:20;;;;;;;6.05;3.50;;;20.30;26.40;;;;;;5031397;28;20399;-72
2023/07/23 08:27:51;;;;;;;9.80;3.60;;;20.10;27.90;;;;;;5031428;28;20642;-71
2023/07/23 08:30:17;;;;;;;8.00;3.10;;;19.90;29.80;;;;;;5032708;28;20464;-71
2023/07/23 08:32:44;;;;;;;9.38;3.80;;;19.80;30.80;;;;;;5031222;28;20399;-72
2023/07/23 08:35:11;;;;;;;6.20;3.78;;;19.80;33.00;;;;;;5032739;28;20402;-72
2023/07/23 08:37:37;;;;;;;10.23;4.30;;;19.60;33.20;;;;;;5032537;28;20387;-71
2023/07/23 08:40:03;;;;;;;10.00;4.10;;;19.60;34.10;;;;;;5031149;28;20721;-73
2023/07/23 08:42:54;;;;;;;6.83;4.03;;;19.50;35.90;;;;;;5030799;28;20949;-72
2023/07/23 08:45:48;;;;;;;7.13;4.10;;;19.60;35.50;;;;;;5031018;28;20395;-72
2023/07/23 08:48:18;;;;;;;5.13;4.00;;;19.60;35.20;;;;;;5030878;28;20375;-73
2023/07/23 08:50:46;;;;;;;10.15;3.80;;;19.40;37.10;;;;;;5031436;28;20387;-72
2023/07/23 08:53:13;;;;;;;5.95;4.20;;;19.40;35.60;;;;;;5032014;28;20879;-72
2023/07/23 08:55:46;;;;;;;6.70;4.43;;;19.40;37.00;;;;;;5032460;28;20476;-71
2023/07/23 08:58:16;;;;;;;4.50;3.30;;;19.40;36.20;;;;;;5031969;28;20426;-71
2023/07/23 09:00:44;;;;;;;10.00;4.10;;;19.30;36.40;;;;;;5032109;28;20406;-71
2023/07/23 09:03:11;;;;;;;6.53;3.63;;;19.30;37.80;;;;;;5031874;28;20453;-72
2023/07/23 09:05:39;;;;;;;5.90;3.78;;;19.50;37.70;;;;;;5032369;28;20395;-71
2023/07/23 09:08:07;;;;;;;6.80;3.65;;;19.60;36.70;;;;;;5031202;28;20485;-72
2023/07/23 09:10:33;;;;;;;6.72;3.63;;;19.60;38.30;;;;;;5032104;28;20744;-71
2023/07/23 09:12:59;;;;;;;7.03;3.70;;;19.60;37.30;;;;;;5032409;28;20880;-71
2023/07/23 09:15:24;;;;;;;6.03;3.80;;;19.70;36.30;;;;;;5031788;28;20449;-71
2023/07/23 09:17:51;;;;;;;7.33;3.80;;;19.80;37.00;;;;;;5047788;22;20379;-77
2023/07/23 09:20:18;;;;;;;5.68;3.97;;;19.80;36.90;;;;;;5053628;28;20464;-76
2023/07/23 09:22:43;;;;;;;7.40;3.72;;;19.90;36.10;;;;;;5054987;28;20393;-76
2023/07/23 09:25:09;;;;;;;4.40;3.40;;;19.90;37.30;;;;;;5054615;28;20439;-77
2023/07/23 09:27:36;;;;;;;6.00;3.97;;;20.00;37.80;;;;;;5052166;28;20430;-74
2023/07/23 09:30:03;;;;;;;5.40;3.70;;;20.00;37.10;;;;;;5056951;28;20411;-76
2023/07/23 09:32:29;;;;;;;8.87;3.80;;;20.00;37.50;;;;;;5054715;28;20410;-77
2023/07/23 09:34:57;;;;;;;7.30;3.40;;;20.10;37.80;;;;;;5036869;28;20392;-77
2023/07/23 09:37:23;;;;;;;7.47;3.75;;;20.10;37.30;;;;;;5052997;28;20820;-76
2023/07/23 09:39:48;;;;;;;5.45;3.70;;;20.20;38.00;;;;;;5052194;28;20428;-76
2023/07/23 09:42:14;;;;;;;6.07;3.90;;;20.30;38.50;;;;;;5052403;28;20493;-75
2023/07/23 09:44:41;;;;;;;5.10;3.55;;;20.20;38.80;;;;;;5051770;28;20480;-77
2023/07/23 09:47:07;;;;;;;5.70;4.35;;;20.10;39.50;;;;;;5052954;28;20442;-76
2023/07/23 09:49:33;;;;;;;6.00;4.00;;;20.00;38.90;;;;;;5034349;28;20390;-76
2023/07/23 09:52:03;;;;;;;4.40;3.13;;;20.00;38.90;;;;;;5053018;28;20443;-77
2023/07/23 09:54:28;;;;;;;4.53;3.90;;;20.10;38.80;;;;;;5051628;28;20604;-76
2023/07/23 09:56:54;;;;;;;4.40;3.30;;;20.20;39.00;;;;;;5054931;28;20427;-77
2023/07/23 09:59:21;;;;;;;6.97;3.50;;;20.20;36.90;;;;;;5057516;28;20444;-75
2023/07/23 10:01:47;;;;;;;5.35;3.40;;;20.30;37.50;;;;;;5038276;28;20421;-76
2023/07/23 10:04:16;;;;;;;6.20;3.83;;;20.30;37.40;;;;;;5037931;28;20404;-76
2023/07/23 10:06:42;;;;;;;5.65;3.60;;;20.30;38.10;;;;;;5056497;28;20382;-76
2023/07/23 10:09:11;;;;;;;5.23;3.20;;;20.30;36.60;;;;;;5057991;28;20473;-76
2023/07/23 10:11:37;;;;;;;4.75;2.90;;;20.30;35.70;;;;;;5058184;28;20428;-75
2023/07/23 10:14:02;;;;;;;6.13;2.85;;;20.30;36.70;;;;;;5057859;28;20385;-74
2023/07/23 10:16:33;;;;;;;4.57;3.10;;;20.40;36.40;;;;;;5057553;28;20826;-75
2023/07/23 10:19:00;;;;;;;3.60;3.05;;;20.40;34.90;;;;;;5056522;28;20463;-76
2023/07/23 10:21:31;;;;;;;4.60;2.70;;;20.50;35.30;;;;;;5057357;28;20475;-75
2023/07/23 10:23:57;;;;;;;7.07;2.90;;;20.60;34.60;;;;;;5057145;28;20401;-75
2023/07/23 10:26:24;;;;;;;4.40;2.40;;;20.60;33.80;;;;;;5058647;28;20397;-75
2023/07/23 10:28:55;;;;;;;6.03;2.40;;;20.60;34.70;;;;;;5059134;28;20382;-77
2023/07/23 10:31:28;;;;;;;4.70;2.70;;;20.50;34.30;;;;;;5059404;28;20385;-75
2023/07/23 10:33:54;;;;;;;6.93;2.50;;;20.50;34.20;;;;;;5060935;28;20399;-77
2023/07/23 10:36:22;;;;;;;4.93;2.47;;;20.50;34.40;;;;;;5059638;28;20401;-76
2023/07/23 10:39:22;;;;;;;5.05;2.78;;;20.50;34.50;;;;;;5059054;28;20764;-75
2023/07/23 10:41:55;;;;;;;5.88;2.97;;;20.70;35.10;;;;;;5053198;28;20484;-75
2023/07/23 10:44:27;;;;;;;3.70;2.50;;;20.80;34.30;;;;;;5036348;28;20944;-76
2023/07/23 10:46:53;;;;;;;4.45;2.38;;;20.90;34.10;;;;;;5053775;28;20388;-76
2023/07/23 10:49:21;;;;;;;4.97;2.78;;;21.00;33.80;;;;;;5053728;28;20738;-76
2023/07/23 10:51:50;;;;;;;5.28;2.85;;;21.00;34.00;;;;;;5038420;28;20385;-77
2023/07/23 10:54:17;;;;;;;5.95;2.13;;;21.10;34.20;;;;;;5057196;28;20405;-76
2023/07/23 10:56:43;;;;;;;6.60;2.50;;;21.10;33.10;;;;;;5055709;28;20869;-76
2023/07/23 10:59:21;;;;;;;5.13;1.90;;;21.20;33.20;;;;;;5052787;28;20385;-75
2023/07/23 11:01:49;;;;;;;8.00;2.30;;;21.10;33.40;;;;;;5050408;28;20746;-76
2023/07/23 11:04:16;;;;;;;4.10;2.35;;;21.00;34.30;;;;;;5050847;28;20463;-76
2023/07/23 11:07:04;;;;;;;4.35;2.72;;;21.00;35.00;;;;;;5050638;28;20397;-77
2023/07/23 11:09:34;;;;;;;4.03;2.70;;;20.90;35.20;;;;;;5050206;28;20381;-76
2023/07/23 11:12:02;;;;;;;5.78;2.40;;;20.90;34.90;;;;;;5032332;28;20812;-76
2023/07/23 11:14:29;;;;;;;6.63;2.63;;;20.80;34.70;;;;;;5033895;28;20394;-76
2023/07/23 11:16:58;;;;;;;6.35;2.83;;;20.80;33.90;;;;;;5054412;28;20667;-76
2023/07/23 11:19:25;;;;;;;5.03;2.50;;;20.80;33.70;;;;;;5054051;28;20400;-75
2023/07/23 11:21:54;;;;;;;4.40;2.47;;;20.90;33.30;;;;;;5054394;28;20444;-76
2023/07/23 11:24:20;;;;;;;13.68;2.90;;;20.90;32.60;;;;;;5054624;28;20465;-76
2023/07/23 11:26:47;;;;;;;9.25;2.60;;;20.90;32.40;;;;;;5036421;28;20385;-75
2023/07/23 11:29:13;;;;;;;13.75;3.42;;;21.00;33.00;;;;;;5036330;28;20391;-76
2023/07/23 11:31:39;;;;;;;6.07;2.70;;;21.10;33.30;;;;;;5054084;28;20884;-77
2023/07/23 11:34:05;;;;;;;7.80;2.60;;;21.20;32.70;;;;;;5036586;28;20397;-75
2023/07/23 11:36:33;;;;;;;9.40;2.75;;;21.20;31.70;;;;;;5054229;28;20385;-77
2023/07/23 11:39:00;;;;;;;10.45;2.70;;;21.30;31.50;;;;;;5054416;28;20385;-75
2023/07/23 11:41:41;;;;;;;11.25;2.50;;;21.30;31.30;;;;;;5035916;28;20401;-76
2023/07/23 11:44:08;;;;;;;13.80;2.40;;;21.30;31.00;;;;;;5054763;28;20422;-75
2023/07/23 11:46:36;;;;;;;6.15;2.70;;;21.30;31.60;;;;;;5036848;28;20428;-76
2023/07/23 11:49:04;;;;;;;8.32;2.60;;;21.50;31.60;;;;;;5054507;28;20400;-76
2023/07/23 11:51:33;;;;;;;10.03;2.50;;;21.40;31.20;;;;;;5054381;28;20381;-75
2023/07/23 11:54:07;;;;;;;8.15;2.45;;;21.40;31.10;;;;;;5053866;28;20392;-76
2023/07/23 11:56:36;;;;;;;6.15;2.70;;;21.40;31.00;;;;;;5054784;28;20871;-75
2023/07/23 11:59:04;;;;;;;2.88;2.20;;;21.40;31.10;;;;;;5054885;28;20393;-75
2023/07/23 12:01:29;;;;;;;4.47;2.20;;;21.30;31.30;;;;;;5035803;28;20394;-75
2023/07/23 12:03:59;;;;;;;5.80;2.17;;;21.30;31.20;;;;;;5054579;28;20393;-77
2023/07/23 12:06:28;;;;;;;10.35;2.40;;;21.50;31.20;;;;;;5053511;28;20392;-76
2023/07/23 12:08:54;;;;;;;5.53;2.50;;;21.50;31.40;;;;;;5054613;28;20373;-78
2023/07/23 12:11:23;;;;;;;2.75;2.10;;;21.50;31.40;;;;;;5053545;28;20892;-76
2023/07/23 12:13:53;;;;;;;5.85;2.60;;;21.50;31.60;;;;;;5054638;28;20484;-75
2023/07/23 12:16:40;;;;;;;5.87;2.43;;;21.60;31.60;;;;;;5053747;28;20939;-76
2023/07/23 12:19:12;;;;;;;6.47;2.20;;;21.50;31.90;;;;;;5053224;28;20397;-75
2023/07/23 12:21:51;;;;;;;6.40;2.65;;;21.60;31.90;;;;;;5053057;28;20450;-77
2023/07/23 12:24:28;;;;;;;5.72;2.80;;;21.70;31.90;;;;;;5053636;28;20407;-77
2023/07/23 12:26:58;;;;;;;11.50;2.80;;;21.80;31.30;;;;;;5053591;28;20382;-76
2023/07/23 12:29:26;;;;;;;7.95;2.30;;;21.80;31.50;;;;;;5055592;28;20372;-77
2023/07/23 12:32:27;;;;;;;9.77;2.40;;;21.80;31.30;;;;;;5053321;28;20798;-76
2023/07/23 12:34:52;;;;;;;8.30;2.90;;;21.80;31.20;;;;;;4955309;29;20400;-76
2023/07/23 12:37:18;;;;;;;9.85;2.70;;;21.70;31.40;;;;;;5031981;28;20385;-77
2023/07/23 12:39:46;;;;;;;13.93;2.50;;;21.70;31.50;;;;;;5053664;28;20484;-76
2023/07/23 12:42:14;;;;;;;9.35;2.50;;;21.70;31.50;;;;;;5054026;28;20793;-76